Time;durP1;ratioP1;P1;durP2;ratioP2;P2;SDS_P1;SDS_P2;PMS_P1;PMS_P2;Temp;Humidity;BMP_temperature;BMP_pressure;BME280_temperature;BME280_humidity;BME280_pressure;Samples;Min_cycle;Max_cycle;Signal;HPM_P1;HPM_P2
2023/03/21 00:00:23;;;;;;;110.40;46.28;;;;;;;;;;5116062;28;20452;-75
2023/03/21 00:02:49;;;;;;;120.97;47.45;;;;;;;;;;5114716;28;20483;-76
2023/03/21 00:05:14;;;;;;;108.38;43.72;;;;;;;;;;5114081;28;20038;-75
2023/03/21 00:07:39;;;;;;;106.97;44.25;;;;;;;;;;5114547;28;20024;-75
2023/03/21 00:10:05;;;;;;;109.97;44.63;;;;;;;;;;5115802;28;20458;-75
2023/03/21 00:12:31;;;;;;;114.20;43.47;;;;;;;;;;5115669;28;20024;-74
2023/03/21 00:15:03;;;;;;;110.13;45.08;;;;;;;;;;5114467;28;20059;-76
2023/03/21 00:17:31;;;;;;;112.07;41.92;;;;;;;;;;5114460;28;20028;-75
2023/03/21 00:20:00;;;;;;;95.85;36.28;;;;;;;;;;5113622;28;20164;-74
2023/03/21 00:22:26;;;;;;;87.28;34.33;;;;;;;;;;5097431;28;20515;-74
2023/03/21 00:24:52;;;;;;;76.53;30.90;;;;;;;;;;5097324;28;20369;-74
2023/03/21 00:27:20;;;;;;;76.28;32.20;;;;;;;;;;5114359;28;20039;-74
2023/03/21 00:29:48;;;;;;;78.35;33.10;;;;;;;;;;5115279;28;20114;-74
2023/03/21 00:32:16;;;;;;;81.45;31.92;;;;;;;;;;5079666;28;20433;-74
2023/03/21 00:34:41;;;;;;;73.38;28.10;;;;;;;;;;5097348;28;20035;-75
2023/03/21 00:37:07;;;;;;;67.38;26.55;;;;;;;;;;5109952;28;20035;-75
2023/03/21 00:39:34;;;;;;;70.38;26.98;;;;;;;;;;5113359;28;20083;-74
2023/03/21 00:41:59;;;;;;;66.72;24.70;;;;;;;;;;5114666;28;20098;-74
2023/03/21 00:44:25;;;;;;;63.38;23.00;;;;;;;;;;5114727;28;20034;-75
2023/03/21 00:46:50;;;;;;;70.53;26.27;;;;;;;;;;5096405;28;20027;-74
2023/03/21 00:49:16;;;;;;;63.30;26.25;;;;;;;;;;5113810;28;20020;-74
2023/03/21 00:51:42;;;;;;;65.22;25.35;;;;;;;;;;5113639;28;20089;-74
2023/03/21 00:54:08;;;;;;;70.63;28.00;;;;;;;;;;5113555;28;20416;-75
2023/03/21 00:56:34;;;;;;;83.28;31.52;;;;;;;;;;5096714;28;20432;-74
2023/03/21 00:58:59;;;;;;;84.22;33.22;;;;;;;;;;5114805;28;20504;-75
2023/03/21 01:01:25;;;;;;;83.97;32.35;;;;;;;;;;5114390;28;20115;-75
2023/03/21 01:04:03;;;;;;;91.40;35.60;;;;;;;;;;5114343;28;20063;-75
2023/03/21 01:06:28;;;;;;;87.03;35.28;;;;;;;;;;5114763;28;20039;-74
2023/03/21 01:08:54;;;;;;;91.70;35.35;;;;;;;;;;5079467;28;20035;-75
2023/03/21 01:11:21;;;;;;;87.65;34.88;;;;;;;;;;5113644;28;20089;-74
2023/03/21 01:13:47;;;;;;;92.93;34.00;;;;;;;;;;5113354;28;20027;-75
2023/03/21 01:16:12;;;;;;;84.70;33.08;;;;;;;;;;5112921;28;20031;-75
2023/03/21 01:18:38;;;;;;;81.32;32.00;;;;;;;;;;5114597;28;20368;-74
2023/03/21 01:21:07;;;;;;;75.25;26.45;;;;;;;;;;5096430;28;20015;-75
2023/03/21 01:23:32;;;;;;;58.63;23.60;;;;;;;;;;5114638;28;20406;-75
2023/03/21 01:25:58;;;;;;;61.63;24.50;;;;;;;;;;5113295;28;20058;-74
2023/03/21 01:28:27;;;;;;;60.63;23.63;;;;;;;;;;5114703;28;20075;-75
2023/03/21 01:30:53;;;;;;;55.97;23.08;;;;;;;;;;5113100;28;20337;-74
2023/03/21 01:33:18;;;;;;;57.40;24.50;;;;;;;;;;5112454;28;20057;-75
2023/03/21 01:35:44;;;;;;;51.25;21.23;;;;;;;;;;5096209;28;20110;-75
2023/03/21 01:38:09;;;;;;;53.80;22.23;;;;;;;;;;5092704;28;20111;-75
2023/03/21 01:40:35;;;;;;;59.78;22.70;;;;;;;;;;5095602;28;20424;-74
2023/03/21 01:43:00;;;;;;;56.58;22.58;;;;;;;;;;5112876;28;20034;-75
2023/03/21 01:46:03;;;;;;;64.47;24.85;;;;;;;;;;5112610;28;20441;-74
2023/03/21 01:48:28;;;;;;;111.40;37.85;;;;;;;;;;5113044;28;20035;-74
2023/03/21 01:50:54;;;;;;;71.55;28.45;;;;;;;;;;5095917;28;20024;-75
2023/03/21 01:53:21;;;;;;;67.20;25.48;;;;;;;;;;5130026;27;20524;-75
2023/03/21 01:55:47;;;;;;;74.75;26.63;;;;;;;;;;5113990;28;20045;-75
2023/03/21 01:58:13;;;;;;;62.70;26.08;;;;;;;;;;5130576;27;20054;-75
2023/03/21 02:00:40;;;;;;;61.05;24.45;;;;;;;;;;5129576;28;20026;-74
2023/03/21 02:03:07;;;;;;;68.75;26.92;;;;;;;;;;5112818;28;20019;-76
2023/03/21 02:05:52;;;;;;;68.90;25.63;;;;;;;;;;5129903;27;20058;-76
2023/03/21 02:08:17;;;;;;;73.97;26.67;;;;;;;;;;5112808;28;20092;-76
2023/03/21 02:10:44;;;;;;;68.35;26.40;;;;;;;;;;5112926;28;20027;-75
2023/03/21 02:13:10;;;;;;;69.63;26.27;;;;;;;;;;5095908;28;20368;-76
2023/03/21 02:15:46;;;;;;;57.47;24.33;;;;;;;;;;5112644;28;20518;-75
2023/03/21 02:18:23;;;;;;;68.82;27.38;;;;;;;;;;5130647;27;20027;-75
2023/03/21 02:21:02;;;;;;;71.43;27.33;;;;;;;;;;5114208;28;20085;-77
2023/03/21 02:23:34;;;;;;;65.85;24.83;;;;;;;;;;5112717;28;20024;-76
2023/03/21 02:25:59;;;;;;;70.75;26.58;;;;;;;;;;5113900;28;20034;-75
2023/03/21 02:28:52;;;;;;;65.82;26.73;;;;;;;;;;5113616;28;20356;-77
2023/03/21 02:31:20;;;;;;;60.92;26.10;;;;;;;;;;5084392;28;20071;-76
2023/03/21 02:34:05;;;;;;;59.58;25.00;;;;;;;;;;5113785;28;20034;-76
2023/03/21 02:36:42;;;;;;;66.30;25.05;;;;;;;;;;5112743;28;20055;-75
2023/03/21 02:39:37;;;;;;;62.92;23.73;;;;;;;;;;5112332;28;20135;-75
2023/03/21 02:42:17;;;;;;;56.55;21.50;;;;;;;;;;5096473;28;20042;-75
2023/03/21 02:45:01;;;;;;;49.78;20.35;;;;;;;;;;5098682;28;20031;-75
2023/03/21 02:47:38;;;;;;;42.63;17.85;;;;;;;;;;5116038;28;20028;-76
2023/03/21 02:50:36;;;;;;;38.90;15.88;;;;;;;;;;5099913;28;20035;-75
2023/03/21 02:53:02;;;;;;;40.72;15.40;;;;;;;;;;5096548;28;20044;-75
2023/03/21 02:55:29;;;;;;;39.85;15.85;;;;;;;;;;5098987;28;20031;-75
2023/03/21 02:57:55;;;;;;;39.33;14.60;;;;;;;;;;5098631;28;20101;-75
2023/03/21 03:00:24;;;;;;;42.08;16.08;;;;;;;;;;5098859;28;20036;-75
2023/03/21 03:02:50;;;;;;;38.95;15.60;;;;;;;;;;5116036;28;20132;-76
2023/03/21 03:05:26;;;;;;;38.03;15.57;;;;;;;;;;5115556;28;20052;-75
2023/03/21 03:08:02;;;;;;;43.75;15.57;;;;;;;;;;5115603;28;20024;-76
2023/03/21 03:11:05;;;;;;;52.15;19.98;;;;;;;;;;5115681;28;20445;-75
2023/03/21 03:13:45;;;;;;;68.82;24.75;;;;;;;;;;5116646;28;20030;-75
2023/03/21 03:16:49;;;;;;;53.40;25.20;;;;;;;;;;5115531;28;20040;-76
2023/03/21 03:19:21;;;;;;;64.15;26.60;;;;;;;;;;5116737;28;20060;-76
2023/03/21 03:21:50;;;;;;;60.15;26.10;;;;;;;;;;5099051;28;20034;-76
2023/03/21 03:24:23;;;;;;;49.70;20.25;;;;;;;;;;5098528;28;20037;-76
2023/03/21 03:27:01;;;;;;;59.28;23.95;;;;;;;;;;5098493;28;20034;-77
2023/03/21 03:29:27;;;;;;;48.15;21.67;;;;;;;;;;5098680;28;20024;-76
2023/03/21 03:32:15;;;;;;;50.88;17.33;;;;;;;;;;5115475;28;20064;-75
2023/03/21 03:34:43;;;;;;;57.47;19.23;;;;;;;;;;5115205;28;20028;-76
2023/03/21 03:37:13;;;;;;;62.53;24.45;;;;;;;;;;5097842;28;20032;-76
2023/03/21 03:40:00;;;;;;;84.80;30.13;;;;;;;;;;5098267;28;20035;-77
2023/03/21 03:42:32;;;;;;;85.95;35.20;;;;;;;;;;5110864;28;20031;-75
2023/03/21 03:44:57;;;;;;;88.35;38.17;;;;;;;;;;5114568;28;20121;-75
2023/03/21 03:47:24;;;;;;;80.53;35.53;;;;;;;;;;5115982;28;20076;-76
2023/03/21 03:50:26;;;;;;;105.97;43.38;;;;;;;;;;5116060;28;20019;-76
2023/03/21 03:52:54;;;;;;;103.47;41.90;;;;;;;;;;5083266;28;20063;-75
2023/03/21 03:55:20;;;;;;;120.85;51.83;;;;;;;;;;5114165;27;20046;-76
2023/03/21 03:57:46;;;;;;;104.72;42.75;;;;;;;;;;5097758;28;20035;-76
2023/03/21 04:00:12;;;;;;;89.65;36.67;;;;;;;;;;5097519;28;20031;-76
2023/03/21 04:02:37;;;;;;;84.72;32.90;;;;;;;;;;5097421;28;20038;-76
2023/03/21 04:05:04;;;;;;;88.60;33.00;;;;;;;;;;5115947;28;20487;-75
2023/03/21 04:07:29;;;;;;;88.88;32.15;;;;;;;;;;5131684;27;20024;-76
2023/03/21 04:09:55;;;;;;;78.32;29.17;;;;;;;;;;5097303;28;20030;-75
2023/03/21 04:12:20;;;;;;;82.03;31.20;;;;;;;;;;5115949;28;20081;-76
2023/03/21 04:14:46;;;;;;;71.35;29.38;;;;;;;;;;5097393;28;20437;-76
2023/03/21 04:17:11;;;;;;;75.20;28.92;;;;;;;;;;5114299;28;20020;-75
2023/03/21 04:19:37;;;;;;;71.90;29.13;;;;;;;;;;5115516;28;20019;-76
2023/03/21 04:22:02;;;;;;;79.50;31.10;;;;;;;;;;5097537;28;20038;-76
2023/03/21 04:24:32;;;;;;;74.78;29.10;;;;;;;;;;5113939;28;20031;-76
2023/03/21 04:26:59;;;;;;;84.32;30.48;;;;;;;;;;5114387;28;20028;-75
2023/03/21 04:29:24;;;;;;;81.30;31.10;;;;;;;;;;5114062;28;20036;-75
2023/03/21 04:31:50;;;;;;;71.97;28.55;;;;;;;;;;5097054;28;20039;-75
2023/03/21 04:34:15;;;;;;;73.25;28.13;;;;;;;;;;5115160;28;20038;-76
2023/03/21 04:36:48;;;;;;;73.30;28.60;;;;;;;;;;5097143;28;20034;-75
2023/03/21 04:39:13;;;;;;;74.18;29.52;;;;;;;;;;5112654;28;20036;-76
2023/03/21 04:41:40;;;;;;;82.63;29.40;;;;;;;;;;5113818;28;20088;-74
2023/03/21 04:44:06;;;;;;;92.45;33.25;;;;;;;;;;5111495;28;20042;-75
2023/03/21 04:46:32;;;;;;;89.88;35.20;;;;;;;;;;5113425;28;20395;-76
2023/03/21 04:48:58;;;;;;;114.53;40.20;;;;;;;;;;5114842;28;20028;-75
2023/03/21 04:51:23;;;;;;;118.13;48.40;;;;;;;;;;5113515;28;20026;-76
2023/03/21 04:53:51;;;;;;;130.35;52.20;;;;;;;;;;5096264;28;20079;-76
2023/03/21 04:56:17;;;;;;;129.82;50.80;;;;;;;;;;5113494;28;20023;-75
2023/03/21 04:58:42;;;;;;;125.05;48.20;;;;;;;;;;5130650;27;20035;-76
2023/03/21 05:01:08;;;;;;;120.15;49.10;;;;;;;;;;5113452;28;20027;-76
2023/03/21 05:03:39;;;;;;;134.07;50.75;;;;;;;;;;5096310;28;20032;-76
2023/03/21 05:06:08;;;;;;;137.07;55.17;;;;;;;;;;5096975;28;20031;-76
2023/03/21 05:08:34;;;;;;;126.35;50.35;;;;;;;;;;5114430;28;20046;-76
2023/03/21 05:11:00;;;;;;;122.47;49.42;;;;;;;;;;5112230;28;20032;-76
2023/03/21 05:13:26;;;;;;;119.20;47.22;;;;;;;;;;5113197;28;20354;-76
2023/03/21 05:15:51;;;;;;;125.57;48.13;;;;;;;;;;5114342;28;20028;-75
2023/03/21 05:18:23;;;;;;;133.27;52.65;;;;;;;;;;5114281;28;20025;-76
2023/03/21 05:20:53;;;;;;;165.20;57.67;;;;;;;;;;5112932;28;20050;-75
2023/03/21 05:23:22;;;;;;;142.18;57.28;;;;;;;;;;5096499;28;20024;-76
2023/03/21 05:25:47;;;;;;;150.20;58.20;;;;;;;;;;5096472;28;20330;-75
2023/03/21 05:28:13;;;;;;;158.57;60.60;;;;;;;;;;5096024;28;20028;-76
2023/03/21 05:30:38;;;;;;;173.63;62.97;;;;;;;;;;5096154;28;20059;-78
2023/03/21 05:33:04;;;;;;;159.23;60.97;;;;;;;;;;5113136;28;20096;-80
2023/03/21 05:35:30;;;;;;;170.68;62.08;;;;;;;;;;5096220;28;20046;-80
2023/03/21 05:37:55;;;;;;;168.13;61.13;;;;;;;;;;5112740;28;20027;-80
2023/03/21 05:40:21;;;;;;;161.20;62.63;;;;;;;;;;5096226;28;20196;-80
2023/03/21 05:42:46;;;;;;;151.15;56.38;;;;;;;;;;5113007;28;20393;-80
2023/03/21 05:45:13;;;;;;;157.40;58.10;;;;;;;;;;5078756;28;20110;-80
2023/03/21 05:47:38;;;;;;;157.65;59.30;;;;;;;;;;5092624;28;20035;-81
2023/03/21 05:50:04;;;;;;;159.43;58.72;;;;;;;;;;5103215;28;20042;-80
2023/03/21 05:52:30;;;;;;;150.90;58.60;;;;;;;;;;5111014;28;20036;-80
2023/03/21 05:54:58;;;;;;;153.15;55.90;;;;;;;;;;5113653;28;20024;-79
2023/03/21 05:57:26;;;;;;;140.52;54.05;;;;;;;;;;5109712;28;20342;-81
2023/03/21 05:59:56;;;;;;;165.02;55.38;;;;;;;;;;5111938;28;20031;-79
2023/03/21 06:02:39;;;;;;;149.00;56.08;;;;;;;;;;5075647;28;20051;-80
2023/03/21 06:05:11;;;;;;;132.20;52.83;;;;;;;;;;5106376;28;20032;-80
2023/03/21 06:07:37;;;;;;;147.60;54.05;;;;;;;;;;5107512;28;20392;-80
2023/03/21 06:10:03;;;;;;;143.25;52.30;;;;;;;;;;5105427;28;20433;-81
2023/03/21 06:12:29;;;;;;;130.80;51.50;;;;;;;;;;5113501;28;20305;-80
2023/03/21 06:14:55;;;;;;;128.55;50.63;;;;;;;;;;5082920;28;20045;-82
2023/03/21 06:17:20;;;;;;;131.27;49.85;;;;;;;;;;5109451;28;20027;-80
2023/03/21 06:19:46;;;;;;;125.25;50.03;;;;;;;;;;5108122;28;20461;-79
2023/03/21 06:22:11;;;;;;;129.18;48.58;;;;;;;;;;5135366;27;20055;-74
2023/03/21 06:24:37;;;;;;;123.40;48.85;;;;;;;;;;5098111;28;20131;-75
2023/03/21 06:27:02;;;;;;;112.82;46.10;;;;;;;;;;5101306;28;20970;-74
2023/03/21 06:29:28;;;;;;;112.03;46.70;;;;;;;;;;5106206;28;20051;-74
2023/03/21 06:31:54;;;;;;;111.03;46.65;;;;;;;;;;5116922;27;20103;-74
2023/03/21 06:34:19;;;;;;;105.30;43.67;;;;;;;;;;5125371;27;20376;-74
2023/03/21 06:36:45;;;;;;;101.55;43.95;;;;;;;;;;5113808;28;20139;-72
2023/03/21 06:39:11;;;;;;;110.85;44.97;;;;;;;;;;5113770;28;20035;-75
2023/03/21 06:41:38;;;;;;;109.45;44.10;;;;;;;;;;5108870;28;20038;-75
2023/03/21 06:44:04;;;;;;;112.35;45.85;;;;;;;;;;5104707;28;20093;-74
2023/03/21 06:46:36;;;;;;;105.45;44.45;;;;;;;;;;5111179;28;20031;-74
2023/03/21 06:49:05;;;;;;;91.68;41.97;;;;;;;;;;5110044;28;20046;-75
2023/03/21 06:51:31;;;;;;;99.47;42.08;;;;;;;;;;5104673;28;20452;-72
2023/03/21 06:53:57;;;;;;;93.43;41.35;;;;;;;;;;5136946;27;20042;-76
2023/03/21 06:56:47;;;;;;;94.28;40.88;;;;;;;;;;5091348;28;20403;-78
2023/03/21 06:59:43;;;;;;;93.43;43.08;;;;;;;;;;5109168;27;20059;-77
2023/03/21 07:02:22;;;;;;;93.85;42.38;;;;;;;;;;5100420;28;20044;-76
2023/03/21 07:04:52;;;;;;;88.57;41.22;;;;;;;;;;5111269;27;20081;-74
2023/03/21 07:07:18;;;;;;;100.65;43.92;;;;;;;;;;5104632;27;20073;-75
2023/03/21 07:09:44;;;;;;;93.05;43.13;;;;;;;;;;5108992;28;20055;-76
2023/03/21 07:12:15;;;;;;;101.43;43.17;;;;;;;;;;5112630;28;20035;-75
2023/03/21 07:14:42;;;;;;;108.43;48.03;;;;;;;;;;5110502;28;20118;-76
2023/03/21 07:17:07;;;;;;;99.03;44.03;;;;;;;;;;5076855;28;20089;-75
2023/03/21 07:19:33;;;;;;;101.15;43.97;;;;;;;;;;5111355;28;20469;-76
2023/03/21 07:22:00;;;;;;;93.90;42.03;;;;;;;;;;5113093;28;20028;-77
2023/03/21 07:24:26;;;;;;;91.85;40.47;;;;;;;;;;5112507;28;20125;-75
2023/03/21 07:26:52;;;;;;;82.20;38.35;;;;;;;;;;5113948;28;20098;-75
2023/03/21 07:29:20;;;;;;;89.00;39.53;;;;;;;;;;5112473;28;20043;-74
2023/03/21 07:31:46;;;;;;;81.45;37.85;;;;;;;;;;5111625;27;20369;-74
2023/03/21 07:34:12;;;;;;;82.32;36.90;;;;;;;;;;5109566;27;20036;-76
2023/03/21 07:36:37;;;;;;;79.80;38.72;;;;;;;;;;5106157;28;20040;-76
2023/03/21 07:39:03;;;;;;;79.97;38.22;;;;;;;;;;5090953;28;20123;-76
2023/03/21 07:41:32;;;;;;;81.63;38.72;;;;;;;;;;5089911;28;20038;-76
2023/03/21 07:43:58;;;;;;;74.00;37.85;;;;;;;;;;5094297;28;20609;-77
2023/03/21 07:46:23;;;;;;;88.63;40.38;;;;;;;;;;5101047;28;20035;-78
2023/03/21 07:48:49;;;;;;;81.60;39.03;;;;;;;;;;5102407;28;20027;-76
2023/03/21 07:51:14;;;;;;;77.82;38.20;;;;;;;;;;5109711;28;20090;-77
2023/03/21 07:53:47;;;;;;;77.82;37.83;;;;;;;;;;5106255;28;20099;-77
2023/03/21 07:56:17;;;;;;;71.38;34.75;;;;;;;;;;5099808;28;20032;-79
2023/03/21 07:58:42;;;;;;;66.22;34.05;;;;;;;;;;5119375;27;20096;-76
2023/03/21 08:01:08;;;;;;;68.28;35.10;;;;;;;;;;5112740;28;20036;-76
2023/03/21 08:03:33;;;;;;;75.60;36.47;;;;;;;;;;5116733;27;20046;-76
2023/03/21 08:06:02;;;;;;;69.32;33.95;;;;;;;;;;5118255;27;20054;-78
2023/03/21 08:08:27;;;;;;;77.22;37.55;;;;;;;;;;5109624;28;20104;-76
2023/03/21 08:10:57;;;;;;;77.65;33.40;;;;;;;;;;5111024;28;20127;-76
2023/03/21 08:13:24;;;;;;;64.13;31.30;;;;;;;;;;5102970;28;20028;-77
2023/03/21 08:15:50;;;;;;;66.30;30.75;;;;;;;;;;5108778;28;20551;-76
2023/03/21 08:18:16;;;;;;;60.85;30.40;;;;;;;;;;5103382;28;20023;-76
2023/03/21 08:20:41;;;;;;;81.95;37.70;;;;;;;;;;5102252;28;20053;-75
2023/03/21 08:23:07;;;;;;;115.90;53.58;;;;;;;;;;5105862;28;20436;-74
2023/03/21 08:25:32;;;;;;;82.68;41.42;;;;;;;;;;5111260;28;20040;-76
2023/03/21 08:27:58;;;;;;;80.63;38.30;;;;;;;;;;5111241;28;20073;-76
2023/03/21 08:30:24;;;;;;;72.15;36.10;;;;;;;;;;5106299;28;20062;-76
2023/03/21 08:32:50;;;;;;;71.10;37.63;;;;;;;;;;5111129;28;20036;-77
2023/03/21 08:35:17;;;;;;;67.97;34.70;;;;;;;;;;5106658;28;20413;-76
2023/03/21 08:37:43;;;;;;;74.25;38.08;;;;;;;;;;5105578;27;20180;-75
2023/03/21 08:40:12;;;;;;;66.20;31.67;;;;;;;;;;5108504;27;20126;-74
2023/03/21 08:42:38;;;;;;;63.08;28.65;;;;;;;;;;5099223;28;20046;-76
2023/03/21 08:45:13;;;;;;;55.17;23.60;;;;;;;;;;5112580;28;20080;-77
2023/03/21 08:47:41;;;;;;;48.22;24.48;;;;;;;;;;5115855;28;20024;-77
2023/03/21 08:50:09;;;;;;;40.50;22.80;;;;;;;;;;5113905;28;20399;-77
2023/03/21 08:52:34;;;;;;;55.83;26.02;;;;;;;;;;5107658;28;20519;-76
2023/03/21 08:55:01;;;;;;;53.47;28.73;;;;;;;;;;5105709;28;20020;-77
2023/03/21 08:57:27;;;;;;;56.28;24.02;;;;;;;;;;5109123;28;20027;-77
2023/03/21 08:59:53;;;;;;;48.80;25.48;;;;;;;;;;5108400;28;20368;-77
2023/03/21 09:02:24;;;;;;;43.55;24.08;;;;;;;;;;5106777;28;20028;-75
2023/03/21 09:04:53;;;;;;;58.72;33.20;;;;;;;;;;5098969;28;20691;-77
2023/03/21 09:07:21;;;;;;;74.82;40.20;;;;;;;;;;5107811;28;20024;-78
2023/03/21 09:09:51;;;;;;;77.32;33.75;;;;;;;;;;5107705;28;20062;-76
2023/03/21 09:12:23;;;;;;;89.10;43.75;;;;;;;;;;5111152;28;20032;-77
2023/03/21 09:14:49;;;;;;;65.18;32.20;;;;;;;;;;5134468;27;20126;-78
2023/03/21 09:17:23;;;;;;;66.30;30.42;;;;;;;;;;5107133;28;20453;-76
2023/03/21 09:20:00;;;;;;;61.00;30.52;;;;;;;;;;5110419;28;20039;-77
2023/03/21 09:22:26;;;;;;;60.25;29.23;;;;;;;;;;5110810;28;20035;-77
2023/03/21 09:24:56;;;;;;;58.78;30.90;;;;;;;;;;5110530;28;20432;-76
2023/03/21 09:27:22;;;;;;;72.03;33.35;;;;;;;;;;5110068;28;20042;-77
2023/03/21 09:29:50;;;;;;;67.68;31.38;;;;;;;;;;5108583;28;20028;-76
2023/03/21 09:32:19;;;;;;;63.20;30.65;;;;;;;;;;5092181;28;20032;-78
2023/03/21 09:34:45;;;;;;;59.85;30.92;;;;;;;;;;5110746;28;20023;-78
2023/03/21 09:37:12;;;;;;;67.75;31.83;;;;;;;;;;5111807;28;20415;-78
2023/03/21 09:39:39;;;;;;;71.10;31.20;;;;;;;;;;5112137;28;20040;-77
2023/03/21 09:42:32;;;;;;;66.22;33.15;;;;;;;;;;5113996;28;20039;-78
2023/03/21 09:45:01;;;;;;;68.82;31.92;;;;;;;;;;5109131;28;20118;-76
2023/03/21 09:47:33;;;;;;;78.20;34.45;;;;;;;;;;5107753;28;20442;-77
2023/03/21 09:50:19;;;;;;;62.20;31.02;;;;;;;;;;5110255;28;20407;-77
2023/03/21 09:52:59;;;;;;;61.45;31.13;;;;;;;;;;5111370;28;20088;-77
2023/03/21 09:55:29;;;;;;;67.72;31.42;;;;;;;;;;5113098;28;20168;-75
2023/03/21 09:58:01;;;;;;;75.50;31.38;;;;;;;;;;5124985;27;20393;-76
2023/03/21 10:00:29;;;;;;;70.53;31.50;;;;;;;;;;5109742;28;20476;-77
2023/03/21 10:02:58;;;;;;;62.60;30.95;;;;;;;;;;5095147;28;20064;-76
2023/03/21 10:05:25;;;;;;;77.00;31.50;;;;;;;;;;5112167;28;20036;-77
2023/03/21 10:08:04;;;;;;;57.45;30.38;;;;;;;;;;5112586;28;20161;-75
2023/03/21 10:10:38;;;;;;;88.50;34.92;;;;;;;;;;5096537;28;20160;-75
2023/03/21 10:13:05;;;;;;;73.63;32.92;;;;;;;;;;5080404;28;20031;-76
2023/03/21 10:15:33;;;;;;;71.20;33.00;;;;;;;;;;5107995;28;20036;-77
2023/03/21 10:18:02;;;;;;;71.75;32.65;;;;;;;;;;5104855;28;20135;-77
2023/03/21 10:20:30;;;;;;;69.78;33.10;;;;;;;;;;5110078;28;20088;-76
2023/03/21 10:22:55;;;;;;;69.72;31.90;;;;;;;;;;5111763;28;20111;-77
2023/03/21 10:25:27;;;;;;;72.70;32.17;;;;;;;;;;5110452;28;20035;-78
2023/03/21 10:27:52;;;;;;;70.93;33.63;;;;;;;;;;5093922;28;20016;-76
2023/03/21 10:30:43;;;;;;;70.53;31.77;;;;;;;;;;5113517;28;20137;-77
2023/03/21 10:33:13;;;;;;;64.80;31.08;;;;;;;;;;5113339;28;20027;-77
2023/03/21 10:35:39;;;;;;;62.38;30.38;;;;;;;;;;5111567;28;20538;-76
2023/03/21 10:38:05;;;;;;;69.15;30.33;;;;;;;;;;5095456;28;20024;-77
2023/03/21 10:40:31;;;;;;;71.63;30.20;;;;;;;;;;5113956;28;20494;-75
2023/03/21 10:43:17;;;;;;;65.15;27.25;;;;;;;;;;5115489;28;20813;-75
2023/03/21 10:45:47;;;;;;;69.38;30.33;;;;;;;;;;5095052;28;20039;-79
2023/03/21 10:48:13;;;;;;;67.28;31.58;;;;;;;;;;5102436;28;20444;-79
2023/03/21 10:50:39;;;;;;;76.95;33.20;;;;;;;;;;5112050;28;20099;-78
2023/03/21 10:53:11;;;;;;;84.57;35.38;;;;;;;;;;5111377;28;20031;-77
2023/03/21 10:55:39;;;;;;;71.88;31.85;;;;;;;;;;5110537;28;20081;-81
2023/03/21 10:58:12;;;;;;;79.90;32.33;;;;;;;;;;5113424;28;20465;-78
2023/03/21 11:00:40;;;;;;;73.85;31.92;;;;;;;;;;5110745;28;20020;-79
2023/03/21 11:03:06;;;;;;;86.20;31.90;;;;;;;;;;5109533;27;20554;-80
2023/03/21 11:05:39;;;;;;;73.93;30.15;;;;;;;;;;5098474;28;20641;-78
2023/03/21 11:08:14;;;;;;;74.20;30.08;;;;;;;;;;5111103;28;20063;-77
2023/03/21 11:10:54;;;;;;;68.70;29.67;;;;;;;;;;5106617;28;20100;-79
2023/03/21 11:13:25;;;;;;;60.90;28.17;;;;;;;;;;5110833;28;20024;-78
2023/03/21 11:16:03;;;;;;;62.58;28.42;;;;;;;;;;5113829;28;20024;-79
2023/03/21 11:18:30;;;;;;;72.28;32.53;;;;;;;;;;5127439;27;20035;-79
2023/03/21 11:20:57;;;;;;;61.00;29.60;;;;;;;;;;5110080;28;20019;-76
2023/03/21 11:23:30;;;;;;;65.53;28.80;;;;;;;;;;5111435;28;20147;-77
2023/03/21 11:25:58;;;;;;;79.30;34.92;;;;;;;;;;5110486;28;20036;-79
2023/03/21 11:28:24;;;;;;;77.68;30.85;;;;;;;;;;5110696;28;20096;-79
2023/03/21 11:30:57;;;;;;;72.93;30.35;;;;;;;;;;5110301;28;20047;-81
2023/03/21 11:33:29;;;;;;;74.38;31.15;;;;;;;;;;5099353;28;20059;-80
2023/03/21 11:36:07;;;;;;;93.60;35.45;;;;;;;;;;5105948;28;20047;-78
2023/03/21 11:38:37;;;;;;;73.22;33.38;;;;;;;;;;5090785;27;20044;-80
2023/03/21 11:41:03;;;;;;;81.75;32.92;;;;;;;;;;5089557;28;20040;-81
2023/03/21 11:43:36;;;;;;;86.53;34.72;;;;;;;;;;5127742;27;20027;-80
2023/03/21 11:46:11;;;;;;;78.82;34.78;;;;;;;;;;5105463;28;20036;-78
2023/03/21 11:48:42;;;;;;;92.40;38.30;;;;;;;;;;5097709;27;20428;-78
2023/03/21 11:51:25;;;;;;;103.00;39.88;;;;;;;;;;5091742;27;20387;-78
2023/03/21 11:54:06;;;;;;;104.82;39.17;;;;;;;;;;5122938;27;20035;-75
2023/03/21 11:56:52;;;;;;;109.75;38.90;;;;;;;;;;5111717;27;20608;-76
2023/03/21 11:59:27;;;;;;;93.90;39.92;;;;;;;;;;5104848;28;20057;-77
2023/03/21 12:02:19;;;;;;;84.47;37.97;;;;;;;;;;5108590;28;20024;-78
2023/03/21 12:04:51;;;;;;;86.25;38.40;;;;;;;;;;5108557;28;20099;-77
2023/03/21 12:07:54;;;;;;;98.75;40.03;;;;;;;;;;5109309;28;20031;-77
2023/03/21 12:10:39;;;;;;;88.05;38.97;;;;;;;;;;5110193;28;20447;-75
2023/03/21 12:13:33;;;;;;;94.72;39.35;;;;;;;;;;5093550;28;20031;-76
2023/03/21 12:16:27;;;;;;;87.07;38.83;;;;;;;;;;5111240;28;20346;-76
2023/03/21 12:18:58;;;;;;;92.85;40.33;;;;;;;;;;5104168;27;20028;-76
2023/03/21 12:21:37;;;;;;;102.38;45.08;;;;;;;;;;5101921;28;20074;-76
2023/03/21 12:24:13;;;;;;;81.20;36.95;;;;;;;;;;5102840;28;20119;-76
2023/03/21 12:26:59;;;;;;;76.05;34.05;;;;;;;;;;5094485;28;20027;-76
2023/03/21 12:29:44;;;;;;;85.07;33.92;;;;;;;;;;5116420;27;20015;-79
2023/03/21 12:32:28;;;;;;;77.95;31.75;;;;;;;;;;5108206;28;20028;-76
2023/03/21 12:35:19;;;;;;;70.63;29.95;;;;;;;;;;5107782;28;20127;-76
2023/03/21 12:38:38;;;;;;;65.45;28.33;;;;;;;;;;5117760;27;20436;-77
2023/03/21 12:41:24;;;;;;;59.33;27.67;;;;;;;;;;5045023;28;20040;-75
2023/03/21 12:43:58;;;;;;;67.13;27.75;;;;;;;;;;5097913;28;20042;-75
2023/03/21 12:46:32;;;;;;;72.10;28.10;;;;;;;;;;5107956;28;20114;-75
2023/03/21 12:49:05;;;;;;;62.05;26.88;;;;;;;;;;5107822;28;20181;-77
2023/03/21 12:51:42;;;;;;;66.68;27.15;;;;;;;;;;5110537;27;20043;-75
2023/03/21 12:54:32;;;;;;;55.47;23.75;;;;;;;;;;5091006;28;20172;-75
2023/03/21 12:57:24;;;;;;;51.55;23.98;;;;;;;;;;5087826;28;20043;-76
2023/03/21 12:59:49;;;;;;;74.22;24.60;;;;;;;;;;5096151;28;20080;-76
2023/03/21 13:02:30;;;;;;;61.25;23.98;;;;;;;;;;5109809;28;20062;-75
2023/03/21 13:05:20;;;;;;;55.30;24.83;;;;;;;;;;5109817;28;20039;-74
2023/03/21 13:07:51;;;;;;;;;;;;;;;;;;5061594;28;20063;-74
2023/03/21 13:10:21;;;;;;;50.55;23.25;;;;;;;;;;5092179;28;20352;-77
2023/03/21 13:13:08;;;;;;;54.67;26.38;;;;;;;;;;5091266;28;20089;-74
2023/03/21 13:15:34;;;;;;;57.50;25.55;;;;;;;;;;5091797;28;20031;-75
2023/03/21 13:18:33;;;;;;;51.67;21.42;;;;;;;;;;5091848;28;20369;-74
2023/03/21 13:21:25;;;;;;;62.70;28.60;;;;;;;;;;5092117;28;20518;-77
2023/03/21 13:24:03;;;;;;;58.25;23.52;;;;;;;;;;5101092;28;20043;-76
2023/03/21 13:26:39;;;;;;;58.00;21.70;;;;;;;;;;5113441;28;20032;-76
2023/03/21 13:29:24;;;;;;;61.45;22.52;;;;;;;;;;5128953;27;20655;-78
2023/03/21 13:31:50;;;;;;;50.72;21.17;;;;;;;;;;5094048;28;20027;-75
2023/03/21 13:34:16;;;;;;;53.92;21.63;;;;;;;;;;5111727;28;20043;-75
2023/03/21 13:36:44;;;;;;;60.55;22.73;;;;;;;;;;5111044;28;20023;-78
2023/03/21 13:39:18;;;;;;;60.53;21.60;;;;;;;;;;5128225;27;20105;-78
2023/03/21 13:41:46;;;;;;;51.55;21.13;;;;;;;;;;5128619;27;20139;-75
2023/03/21 13:44:20;;;;;;;48.17;20.33;;;;;;;;;;5111350;28;20338;-76
2023/03/21 13:46:53;;;;;;;59.67;20.23;;;;;;;;;;5113942;28;20399;-78
2023/03/21 13:49:35;;;;;;;55.05;20.85;;;;;;;;;;5112154;28;20381;-77
2023/03/21 13:52:09;;;;;;;45.97;19.30;;;;;;;;;;5112987;28;20527;-76
2023/03/21 13:54:48;;;;;;;45.42;19.80;;;;;;;;;;5114090;28;20063;-76
2023/03/21 13:57:40;;;;;;;42.10;18.65;;;;;;;;;;5111862;28;20066;-76
2023/03/21 14:00:38;;;;;;;60.28;21.98;;;;;;;;;;5110064;28;20040;-78
2023/03/21 14:03:12;;;;;;;40.30;17.55;;;;;;;;;;5114009;28;20342;-77
2023/03/21 14:05:38;;;;;;;45.83;18.40;;;;;;;;;;5129507;27;20456;-76
2023/03/21 14:08:07;;;;;;;43.50;19.55;;;;;;;;;;5095764;28;20027;-75
2023/03/21 14:10:36;;;;;;;57.83;20.77;;;;;;;;;;5130418;27;20020;-76
2023/03/21 14:13:03;;;;;;;58.42;19.20;;;;;;;;;;5129895;27;20224;-78
2023/03/21 14:15:48;;;;;;;49.63;17.42;;;;;;;;;;5129949;27;20072;-75
2023/03/21 14:18:14;;;;;;;57.15;19.40;;;;;;;;;;5112761;28;20060;-75
2023/03/21 14:20:40;;;;;;;49.13;18.17;;;;;;;;;;5112135;28;20445;-75
2023/03/21 14:23:07;;;;;;;40.72;18.35;;;;;;;;;;5112495;28;20048;-76
2023/03/21 14:25:34;;;;;;;44.05;17.60;;;;;;;;;;5109226;28;20487;-77
2023/03/21 14:28:02;;;;;;;42.17;17.65;;;;;;;;;;5112460;28;20410;-75
2023/03/21 14:30:33;;;;;;;46.45;20.10;;;;;;;;;;5129764;27;20027;-75
2023/03/21 14:33:02;;;;;;;50.58;20.27;;;;;;;;;;5129787;27;20402;-75
2023/03/21 14:35:30;;;;;;;53.28;18.73;;;;;;;;;;5130075;27;20027;-76